Time;durP1;ratioP1;P1;durP2;ratioP2;P2;SDS_P1;SDS_P2;PMS_P1;PMS_P2;Temp;Humidity;BMP_temperature;BMP_pressure;BME280_temperature;BME280_humidity;BME280_pressure;Samples;Min_cycle;Max_cycle;Signal;HPM_P1;HPM_P2
2023/02/28 00:01:30;;;;;;;;;;;;;;;4.32;100.00;100241.47;5004853;28;19978;-75
2023/02/28 00:03:55;;;;;;;;;;;;;;;4.52;100.00;100242.56;5006346;28;19926;-75
2023/02/28 00:06:21;;;;;;;;;;;;;;;4.71;100.00;100222.38;5001755;28;19925;-75
2023/02/28 00:08:46;;;;;;;;;;;;;;;3.59;100.00;100233.59;5023138;28;19924;-75
2023/02/28 00:11:12;;;;;;;;;;;;;;;4.61;100.00;100229.06;5008567;28;19933;-75
2023/02/28 00:13:38;;;;;;;;;;;;;;;4.51;100.00;100222.97;5003373;28;19947;-75
2023/02/28 00:16:10;;;;;;;;;;;;;;;3.74;100.00;100229.59;5001918;28;19921;-75
2023/02/28 00:18:36;;;;;;;;;;;;;;;4.22;100.00;100204.78;5003658;28;19955;-75
2023/02/28 00:21:01;;;;;;;;;;;;;;;4.59;100.00;100200.97;5021870;28;20621;-75
2023/02/28 00:23:26;;;;;;;;;;;;;;;4.10;100.00;100195.25;5023410;28;20006;-75
2023/02/28 00:25:52;;;;;;;;;;;;;;;4.51;100.00;100194.94;5029651;28;19925;-75
2023/02/28 00:28:17;;;;;;;;;;;;;;;5.36;100.00;100177.88;5022422;28;19931;-75
2023/02/28 00:30:43;;;;;;;;;;;;;;;5.27;100.00;100176.13;5020893;28;19925;-75
2023/02/28 00:33:08;;;;;;;;;;;;;;;5.64;100.00;100173.88;5025665;28;19932;-75
2023/02/28 00:35:34;;;;;;;;;;;;;;;4.40;100.00;100193.94;5025369;28;19920;-75
2023/02/28 00:37:59;;;;;;;;;;;;;;;5.36;100.00;100186.44;5030124;28;19921;-75
2023/02/28 00:40:24;;;;;;;;;;;;;;;4.77;100.00;100171.41;5025955;28;19970;-75
2023/02/28 00:42:49;;;;;;;;;;;;;;;4.64;100.00;100183.19;5025608;28;19917;-75
2023/02/28 00:45:14;;;;;;;;;;;;;;;5.13;100.00;100188.78;5025672;28;20007;-75
2023/02/28 00:47:40;;;;;;;;;;;;;;;3.93;100.00;100186.53;5030737;28;20028;-76
2023/02/28 00:50:06;;;;;;;;;;;;;;;5.12;100.00;100187.06;5026026;28;20010;-75
2023/02/28 00:52:31;;;;;;;;;;;;;;;5.34;100.00;100177.91;5023430;28;20016;-75
2023/02/28 00:54:56;;;;;;;;;;;;;;;5.25;100.00;100172.72;5026629;28;20008;-75
2023/02/28 00:57:22;;;;;;;;;;;;;;;4.76;100.00;100177.34;5028721;28;20019;-75
2023/02/28 00:59:47;;;;;;;;;;;;;;;5.51;100.00;100164.41;5009063;28;19921;-75
2023/02/28 01:02:12;;;;;;;;;;;;;;;5.31;100.00;100164.22;5029092;28;19947;-75
2023/02/28 01:04:37;;;;;;;;;;;;;;;5.31;100.00;100161.69;5022237;28;20455;-75
2023/02/28 01:07:02;;;;;;;;;;;;;;;4.27;100.00;100166.59;5029185;28;20020;-75
2023/02/28 01:09:28;;;;;;;;;;;;;;;5.00;100.00;100172.50;5031665;28;20004;-75
2023/02/28 01:11:53;;;;;;;;;;;;;;;5.02;100.00;100163.16;5025562;28;20020;-75
2023/02/28 01:14:19;;;;;;;;;;;;;;;5.53;100.00;100157.59;5023761;28;19946;-75
2023/02/28 01:16:44;;;;;;;;;;;;;;;4.99;100.00;100175.88;5025515;28;19925;-75
2023/02/28 01:19:09;;;;;;;;;;;;;;;5.00;100.00;100182.69;5028370;28;20370;-75
2023/02/28 01:21:37;;;;;;;;;;;;;;;5.11;100.00;100154.72;5025296;28;20013;-75
2023/02/28 01:24:03;;;;;;;;;;;;;;;4.85;100.00;100172.34;5021824;28;19928;-75
2023/02/28 01:26:28;;;;;;;;;;;;;;;5.36;100.00;100160.00;5031082;28;19917;-76
2023/02/28 01:28:53;;;;;;;;;;;;;;;5.40;100.00;100152.38;5028946;28;20427;-75
2023/02/28 01:31:19;;;;;;;;;;;;;;;4.92;100.00;100147.72;5023325;28;19925;-75
2023/02/28 01:33:45;;;;;;;;;;;;;;;4.66;100.00;100152.59;5022584;28;19962;-75
2023/02/28 01:36:11;;;;;;;;;;;;;;;4.76;100.00;100156.94;5022217;28;19921;-75
2023/02/28 01:38:37;;;;;;;;;;;;;;;4.08;100.00;100153.63;5025919;28;20012;-75
2023/02/28 01:41:02;;;;;;;;;;;;;;;4.21;100.00;100172.47;5018523;28;20630;-75
2023/02/28 01:43:32;;;;;;;;;;;;;;;4.34;100.00;100164.13;5023015;28;19970;-75
2023/02/28 01:45:58;;;;;;;;;;;;;;;4.47;100.00;100154.94;5029674;28;19921;-75
2023/02/28 01:48:25;;;;;;;;;;;;;;;4.58;100.00;100178.00;5030012;28;19917;-75
2023/02/28 01:50:51;;;;;;;;;;;;;;;4.45;100.00;100174.47;5015231;28;19921;-75
2023/02/28 01:53:17;;;;;;;;;;;;;;;4.07;100.00;100181.63;5022695;28;20536;-75
2023/02/28 01:55:45;;;;;;;;;;;;;;;5.07;100.00;100154.69;5028840;28;20854;-75
2023/02/28 01:58:10;;;;;;;;;;;;;;;5.27;100.00;100144.63;5020407;28;20487;-75
2023/02/28 02:00:35;;;;;;;;;;;;;;;4.55;100.00;100126.94;5027156;28;19917;-75
2023/02/28 02:03:03;;;;;;;;;;;;;;;3.63;100.00;100147.06;5026876;28;20032;-75
2023/02/28 02:05:30;;;;;;;;;;;;;;;4.12;100.00;100175.75;5027011;28;20605;-76
2023/02/28 02:07:56;;;;;;;;;;;;;;;3.44;100.00;100175.63;5022414;28;19916;-75
2023/02/28 02:10:24;;;;;;;;;;;;;;;4.25;100.00;100178.47;5008864;28;20107;-75
2023/02/28 02:13:00;;;;;;;;;;;;;;;4.07;100.00;100179.94;5026445;28;19921;-75
2023/02/28 02:15:29;;;;;;;;;;;;;;;4.15;100.00;100172.38;5023006;28;20544;-75
2023/02/28 02:17:56;;;;;;;;;;;;;;;4.34;100.00;100164.13;5027323;28;20439;-75
2023/02/28 02:20:24;;;;;;;;;;;;;;;4.38;100.00;100144.63;5026110;28;19927;-75
2023/02/28 02:22:55;;;;;;;;;;;;;;;4.55;100.00;100132.06;5026911;28;19916;-75
2023/02/28 02:25:23;;;;;;;;;;;;;;;4.35;100.00;100135.22;5027061;28;20011;-75
2023/02/28 02:27:54;;;;;;;;;;;;;;;4.13;100.00;100135.84;5020216;28;19922;-75
2023/02/28 02:30:43;;;;;;;;;;;;;;;3.46;100.00;100128.13;5023217;28;19920;-75
2023/02/28 02:33:17;;;;;;;;;;;;;;;3.50;100.00;100140.06;4987663;28;19976;-76
2023/02/28 02:36:01;;;;;;;;;;;;;;;3.47;100.00;100140.03;5027494;28;20375;-75
2023/02/28 02:38:29;;;;;;;;;;;;;;;3.53;100.00;100146.03;5018888;28;20779;-75
2023/02/28 02:41:03;;;;;;;;;;;;;;;3.69;100.00;100142.03;5031121;28;19927;-75
2023/02/28 02:43:29;;;;;;;;;;;;;;;4.15;100.00;100131.59;5023890;28;19921;-75
2023/02/28 02:45:55;;;;;;;;;;;;;;;4.31;100.00;100130.06;5019908;28;19925;-75
2023/02/28 02:48:21;;;;;;;;;;;;;;;3.90;100.00;100135.50;5020009;28;19913;-76
2023/02/28 02:50:49;;;;;;;;;;;;;;;3.34;100.00;100144.91;5017556;28;19920;-75
2023/02/28 02:53:14;;;;;;;;;;;;;;;3.61;100.00;100158.91;5016904;28;19936;-75
2023/02/28 02:55:40;;;;;;;;;;;;;;;4.68;100.00;100128.78;5022175;28;20355;-75
2023/02/28 03:16:38;;;;;;;;;;;;;;;4.49;100.00;100122.63;5031083;28;19932;-76
2023/02/28 03:19:23;;;;;;;;;;;;;;;4.61;100.00;100117.66;5018072;28;19970;-75
2023/02/28 03:22:07;;;;;;;;;;;;;;;4.56;99.00;100098.91;5026477;28;19927;-75
2023/02/28 03:24:45;;;;;;;;;;;;;;;4.25;99.35;100105.38;5028030;28;19924;-76
2023/02/28 03:27:12;;;;;;;;;;;;;;;4.29;99.64;100117.31;5025422;28;19917;-75
2023/02/28 03:29:44;;;;;;;;;;;;;;;4.44;99.32;100103.88;5031797;28;20623;-75
2023/02/28 06:28:57;;;;;;;;;;;;;;;2.32;100.00;100209.19;5052184;28;19931;-76
2023/02/28 06:31:22;;;;;;;;;;;;;;;3.45;100.00;100196.03;5050296;28;19920;-75
2023/02/28 06:33:48;;;;;;;;;;;;;;;2.62;100.00;100206.41;5050918;28;19924;-76
2023/02/28 06:36:14;;;;;;;;;;;;;;;3.49;100.00;100202.00;5046760;28;20011;-76
2023/02/28 06:38:39;;;;;;;;;;;;;;;3.32;100.00;100186.47;5047251;28;20418;-76
2023/02/28 06:41:05;;;;;;;;;;;;;;;3.66;100.00;100192.94;5053870;28;19999;-76
2023/02/28 06:43:31;;;;;;;;;;;;;;;3.03;99.42;100191.91;5052713;28;19917;-76
2023/02/28 06:46:00;;;;;;;;;;;;;;;3.66;99.93;100198.03;5052808;28;19965;-76
2023/02/28 06:48:26;;;;;;;;;;;;;;;3.72;97.06;100172.66;5032806;28;19913;-76
2023/02/28 06:50:51;;;;;;;;;;;;;;;3.03;96.67;100181.72;5043735;28;19927;-75
2023/02/28 06:53:16;;;;;;;;;;;;;;;3.10;98.45;100195.41;5058240;28;19916;-76
2023/02/28 06:55:42;;;;;;;;;;;;;;;2.96;98.79;100209.59;5048168;28;19999;-76
2023/02/28 06:58:18;;;;;;;;;;;;;;;3.54;99.48;100205.50;5051853;28;20010;-75
2023/02/28 07:00:44;;;;;;;;;;;;;;;3.11;100.00;100217.50;5057150;28;19999;-74
2023/02/28 07:03:09;;;;;;;;;;;;;;;2.82;100.00;100266.16;5047378;28;20007;-75
2023/02/28 07:05:37;;;;;;;;;;;;;;;3.88;100.00;100228.97;5051622;28;20885;-74
2023/02/28 07:50:42;;;;;;;;;;;;;;;5.03;98.92;100203.16;5051081;28;20020;-74
2023/02/28 07:53:07;;;;;;;;;;;;;;;4.91;97.82;100197.94;5049578;28;19929;-73
2023/02/28 07:55:33;;;;;;;;;;;;;;;4.16;94.98;100187.69;5057301;28;19924;-73
2023/02/28 07:57:58;;;;;;;;;;;;;;;4.23;96.20;100198.00;5055434;28;20006;-73
2023/02/28 08:00:23;;;;;;;;;;;;;;;4.88;95.91;100187.69;5028045;28;20055;-73
2023/02/28 08:02:48;;;;;;;;;;;;;;;4.31;97.33;100204.03;5052910;28;20007;-73
2023/02/28 08:05:14;;;;;;;;;;;;;;;4.80;98.39;100219.94;5041770;28;20563;-74
2023/02/28 08:07:39;;;;;;;;;;;;;;;4.81;97.22;100201.22;5055517;28;19920;-73
2023/02/28 08:10:05;;;;;;;;;;;;;;;4.09;100.00;100239.44;5053972;28;20838;-73
2023/02/28 08:12:30;;;;;;;;;;;;;;;3.72;100.00;100246.53;5056052;28;19977;-74
2023/02/28 08:14:55;;;;;;;;;;;;;;;4.89;100.00;100235.34;5055933;28;19920;-74
2023/02/28 08:17:21;;;;;;;;;;;;;;;4.69;99.71;100218.94;5059809;28;19921;-73
2023/02/28 08:19:46;;;;;;;;;;;;;;;4.79;99.17;100218.22;5051614;28;19995;-73
2023/02/28 08:22:11;;;;;;;;;;;;;;;3.70;100.00;100250.75;5052992;28;19920;-73
2023/02/28 08:24:37;;;;;;;;;;;;;;;4.05;100.00;100252.97;5052531;28;19991;-73
2023/02/28 08:27:02;;;;;;;;;;;;;;;4.54;100.00;100265.56;5053902;28;19951;-73
2023/02/28 08:29:27;;;;;;;;;;;;;;;3.71;100.00;100285.56;5056170;28;19921;-73
2023/02/28 08:31:52;;;;;;;;;;;;;;;3.20;100.00;100299.13;5054838;28;19917;-74
2023/02/28 08:34:18;;;;;;;;;;;;;;;4.18;100.00;100308.41;5048672;28;19950;-73
2023/02/28 08:36:45;;;;;;;;;;;;;;;4.26;100.00;100295.75;5051343;28;19920;-73
2023/02/28 08:39:10;;;;;;;;;;;;;;;4.16;100.00;100292.22;5053623;28;19920;-73
2023/02/28 08:41:36;;;;;;;;;;;;;;;4.70;100.00;100299.75;5057645;28;20494;-73
2023/02/28 08:44:01;;;;;;;;;;;;;;;4.43;100.00;100280.72;5053290;28;19944;-73
2023/02/28 08:46:27;;;;;;;;;;;;;;;4.88;100.00;100279.59;5058461;28;19924;-73
2023/02/28 08:48:53;;;;;;;;;;;;;;;4.68;100.00;100268.28;5050402;28;19982;-73
2023/02/28 08:51:21;;;;;;;;;;;;;;;4.40;100.00;100265.34;5053001;28;19927;-74
2023/02/28 08:53:49;;;;;;;;;;;;;;;4.38;100.00;100287.47;5060575;28;19917;-73
2023/02/28 08:56:14;;;;;;;;;;;;;;;4.79;100.00;100261.63;5057606;28;19981;-74
2023/02/28 08:58:39;;;;;;;;;;;;;;;4.62;100.00;100286.91;5054255;28;19920;-73
2023/02/28 09:01:11;;;;;;;;;;;;;;;4.46;100.00;100283.28;5053798;28;19923;-73
2023/02/28 09:03:37;;;;;;;;;;;;;;;5.33;100.00;100275.78;5052768;28;19968;-73
2023/02/28 09:06:02;;;;;;;;;;;;;;;4.24;100.00;100283.84;5057406;28;19960;-73
2023/02/28 09:08:27;;;;;;;;;;;;;;;4.53;100.00;100291.88;5048943;28;19916;-72
2023/02/28 09:10:54;;;;;;;;;;;;;;;4.51;100.00;100301.22;5046170;28;19971;-72
2023/02/28 09:13:19;;;;;;;;;;;;;;;3.64;100.00;100285.47;5051462;28;19921;-72
2023/02/28 09:15:44;;;;;;;;;;;;;;;4.05;100.00;100303.97;5048449;28;19924;-72
2023/02/28 09:18:10;;;;;;;;;;;;;;;4.23;100.00;100292.34;5056500;28;19917;-72
2023/02/28 09:20:37;;;;;;;;;;;;;;;5.54;100.00;100267.50;5048148;28;19933;-74
2023/02/28 09:23:02;;;;;;;;;;;;;;;6.78;100.00;100223.06;5057775;28;20034;-74
2023/02/28 09:25:27;;;;;;;;;;;;;;;5.84;100.00;100215.75;5052610;28;19959;-74
2023/02/28 09:27:53;;;;;;;;;;;;;;;7.03;100.00;100204.34;5053500;28;20414;-74
2023/02/28 09:30:18;;;;;;;;;;;;;;;6.33;100.00;100215.19;5053427;28;20006;-74
2023/02/28 09:32:51;;;;;;;;;;;;;;;5.41;100.00;100230.75;5050739;28;20395;-74
2023/02/28 09:35:16;;;;;;;;;;;;;;;5.16;100.00;100233.94;5053392;28;20345;-74
2023/02/28 09:37:42;;;;;;;;;;;;;;;4.46;100.00;100267.13;5050113;28;19917;-74
2023/02/28 09:40:08;;;;;;;;;;;;;;;4.42;100.00;100258.56;5053662;28;19948;-74
2023/02/28 09:42:33;;;;;;;;;;;;;;;5.79;100.00;100252.34;5053332;28;19920;-74
2023/02/28 09:45:00;;;;;;;;;;;;;;;5.26;100.00;100256.13;5048791;28;19917;-74
2023/02/28 09:47:28;;;;;;;;;;;;;;;5.20;100.00;100266.28;5048772;28;19931;-74
2023/02/28 09:49:53;;;;;;;;;;;;;;;5.32;100.00;100263.03;5058152;28;19925;-74
2023/02/28 09:52:20;;;;;;;;;;;;;;;5.16;100.00;100241.59;5052105;28;19927;-73
2023/02/28 09:54:45;;;;;;;;;;;;;;;5.37;100.00;100233.25;5026750;28;20321;-74
2023/02/28 09:57:10;;;;;;;;;;;;;;;4.50;100.00;100236.59;5047634;28;19923;-74
2023/02/28 09:59:38;;;;;;;;;;;;;;;4.97;100.00;100238.84;5050061;28;20002;-74
2023/02/28 10:02:24;;;;;;;;;;;;;;;4.99;100.00;100261.81;5052198;28;19920;-74
2023/02/28 10:04:51;;;;;;;;;;;;;;;5.97;100.00;100241.41;5045866;28;19920;-74
2023/02/28 10:07:18;;;;;;;;;;;;;;;5.17;100.00;100240.72;5046253;28;19917;-74
2023/02/28 10:09:43;;;;;;;;;;;;;;;6.86;100.00;100221.38;5048921;28;19924;-74
2023/02/28 10:12:09;;;;;;;;;;;;;;;6.34;100.00;100222.03;5023044;28;20427;-74
2023/02/28 10:14:34;;;;;;;;;;;;;;;5.35;100.00;100209.41;5045725;28;19990;-74
2023/02/28 10:17:05;;;;;;;;;;;;;;;4.93;100.00;100221.78;5034533;28;20003;-74
2023/02/28 10:19:33;;;;;;;;;;;;;;;5.44;100.00;100235.88;5052096;28;19924;-74
2023/02/28 10:22:15;;;;;;;;;;;;;;;4.71;100.00;100214.72;5054955;28;19923;-74
2023/02/28 10:24:41;;;;;;;;;;;;;;;6.89;100.00;100226.50;5054528;28;19916;-74
2023/02/28 10:27:16;;;;;;;;;;;;;;;5.59;99.97;100193.44;5052418;28;19921;-74
2023/02/28 10:29:43;;;;;;;;;;;;;;;5.66;98.88;100184.94;5052572;28;19916;-74
2023/02/28 10:32:09;;;;;;;;;;;;;;;6.30;98.63;100181.09;5052479;28;20375;-74
2023/02/28 10:34:34;;;;;;;;;;;;;;;6.73;97.41;100176.09;5046050;28;20050;-74
2023/02/28 10:37:07;;;;;;;;;;;;;;;5.98;96.67;100174.09;5054574;28;19931;-74
2023/02/28 10:39:35;;;;;;;;;;;;;;;6.53;97.53;100176.91;5046765;28;19916;-74
2023/02/28 10:42:01;;;;;;;;;;;;;;;5.74;94.73;100157.72;5057129;28;19921;-74
2023/02/28 10:44:26;;;;;;;;;;;;;;;5.91;94.14;100164.63;5057501;28;19962;-74
2023/02/28 10:46:51;;;;;;;;;;;;;;;5.92;93.38;100162.09;5057512;28;19921;-74
2023/02/28 10:49:17;;;;;;;;;;;;;;;5.81;92.15;100143.28;5057930;28;19931;-74
2023/02/28 10:51:43;;;;;;;;;;;;;;;5.45;95.43;100178.84;5054874;28;20074;-74
2023/02/28 10:54:14;;;;;;;;;;;;;;;5.10;94.53;100178.53;5056515;28;20016;-74
2023/02/28 10:56:40;;;;;;;;;;;;;;;6.28;98.00;100183.63;5047699;28;20062;-74
2023/02/28 10:59:22;;;;;;;;;;;;;;;6.23;97.29;100183.59;5047743;28;20003;-74
2023/02/28 11:01:50;;;;;;;;;;;;;;;5.68;96.27;100178.16;5047168;28;19944;-74
2023/02/28 11:04:29;;;;;;;;;;;;;;;7.01;96.96;100164.22;5045974;28;20062;-74
2023/02/28 11:07:13;;;;;;;;;;;;;;;7.99;94.16;100138.47;5051076;28;20120;-74
2023/02/28 11:09:39;;;;;;;;;;;;;;;7.33;93.73;100133.47;5050894;28;19927;-74
2023/02/28 11:12:05;;;;;;;;;;;;;;;6.66;95.14;100167.53;5043325;28;19955;-75
2023/02/28 11:14:34;;;;;;;;;;;;;;;8.75;95.71;100144.16;5046759;28;19946;-74
2023/02/28 11:17:00;;;;;;;;;;;;;;;8.16;93.39;100133.28;5043804;28;20427;-74
2023/02/28 11:19:28;;;;;;;;;;;;;;;8.21;93.62;100134.13;5047985;28;19963;-74
2023/02/28 11:21:55;;;;;;;;;;;;;;;7.08;93.52;100141.16;5047126;28;19928;-72
2023/02/28 11:24:23;;;;;;;;;;;;;;;7.03;94.08;100148.00;5051484;28;19920;-73
2023/02/28 11:26:48;;;;;;;;;;;;;;;7.34;88.79;100096.72;5047060;28;20521;-72
2023/02/28 11:29:21;;;;;;;;;;;;;;;8.38;86.40;100081.00;5046455;28;19963;-73
2023/02/28 11:32:00;;;;;;;;;;;;;;;7.79;87.49;100088.97;5046025;28;19964;-73
2023/02/28 11:34:27;;;;;;;;;;;;;;;8.00;85.52;100080.31;5041491;28;19943;-72
2023/02/28 11:36:53;;;;;;;;;;;;;;;6.93;84.49;100079.69;5044810;28;19920;-72
2023/02/28 11:39:18;;;;;;;;;;;;;;;7.09;85.61;100101.03;5052365;28;20866;-73
2023/02/28 11:41:59;;;;;;;;;;;;;;;8.68;84.85;100071.41;5052018;28;19987;-72
2023/02/28 11:44:43;;;;;;;;;;;;;;;7.24;84.47;100084.81;5052292;28;19979;-72
2023/02/28 11:47:27;;;;;;;;;;;;;;;9.44;81.43;100061.34;5044030;28;19917;-72
2023/02/28 11:50:11;;;;;;;;;;;;;;;8.60;75.28;100019.28;5055251;28;19974;-72
2023/02/28 11:52:40;;;;;;;;;;;;;;;7.24;77.81;100065.16;5060865;28;19966;-72
2023/02/28 11:55:17;;;;;;;;;;;;;;;8.21;80.61;100071.66;5052444;28;20019;-72
2023/02/28 11:57:50;;;;;;;;;;;;;;;7.78;81.15;100085.56;5050902;28;20568;-72
2023/02/28 12:00:24;;;;;;;;;;;;;;;7.80;80.86;100086.41;5056726;28;20003;-72
2023/02/28 12:02:57;;;;;;;;;;;;;;;6.60;82.30;100106.97;5050987;28;19920;-72
2023/02/28 12:05:31;;;;;;;;;;;;;;;6.37;82.00;100108.63;5054151;28;19961;-72
2023/02/28 12:07:59;;;;;;;;;;;;;;;6.84;80.50;100088.25;5045410;28;19921;-72
2023/02/28 12:10:25;;;;;;;;;;;;;;;6.71;79.06;100071.16;5053752;28;20448;-72
2023/02/28 12:12:56;;;;;;;;;;;;;;;6.91;79.52;100082.25;5044989;28;20324;-73
2023/02/28 12:15:39;;;;;;;;;;;;;;;7.69;78.28;100062.50;5053891;28;19939;-73
2023/02/28 12:18:07;;;;;;;;;;;;;;;8.26;78.55;100050.28;5054869;28;19920;-72
2023/02/28 12:20:32;;;;;;;;;;;;;;;7.67;78.91;100061.66;5054485;28;19956;-72
2023/02/28 12:22:57;;;;;;;;;;;;;;;7.53;76.48;100048.88;5057154;28;20005;-72
2023/02/28 12:25:43;;;;;;;;;;;;;;;7.65;77.59;100051.41;5056894;28;21476;-72
2023/02/28 12:28:12;;;;;;;;;;;;;;;6.91;76.41;100043.84;5055997;28;19920;-72
2023/02/28 12:30:48;;;;;;;;;;;;;;;7.27;78.81;100059.16;5052690;28;20738;-72
2023/02/28 12:33:14;;;;;;;;;;;;;;;9.00;82.65;100073.72;5061033;28;19935;-72
2023/02/28 12:35:57;;;;;;;;;;;;;;;9.28;80.09;100047.78;5051766;28;19971;-73
2023/02/28 12:38:26;;;;;;;;;;;;;;;7.23;75.49;100031.84;5063017;28;19924;-72
2023/02/28 12:40:51;;;;;;;;;;;;;;;8.60;80.93;100070.63;5046268;28;19925;-72
2023/02/28 12:43:17;;;;;;;;;;;;;;;7.49;78.86;100060.00;5038660;28;19971;-72
2023/02/28 12:45:48;;;;;;;;;;;;;;;8.05;79.60;100051.25;5037894;28;19921;-72
2023/02/28 12:48:29;;;;;;;;;;;;;;;8.79;80.17;100046.50;5049442;28;20454;-72
2023/02/28 12:50:54;;;;;;;;;;;;;;;8.48;78.80;100039.91;5056081;28;20019;-72
2023/02/28 12:53:24;;;;;;;;;;;;;;;8.46;79.98;100046.75;5058934;28;20020;-72
2023/02/28 12:55:56;;;;;;;;;;;;;;;8.70;78.91;100038.88;5052727;28;19920;-72
2023/02/28 12:58:26;;;;;;;;;;;;;;;7.84;77.74;100039.34;5056024;28;19924;-72
2023/02/28 13:01:00;;;;;;;;;;;;;;;8.21;79.06;100046.88;5045962;28;19920;-72
2023/02/28 13:03:40;;;;;;;;;;;;;;;8.31;76.33;100017.72;5049805;28;19916;-72
2023/02/28 13:06:14;;;;;;;;;;;;;;;8.54;74.28;99998.78;5051030;28;19921;-72
2023/02/28 13:08:42;;;;;;;;;;;;;;;7.53;75.71;100029.22;5052597;28;19927;-72
2023/02/28 13:11:08;;;;;;;;;;;;;;;8.74;76.73;100016.59;5054587;28;20020;-72
2023/02/28 13:13:33;;;;;;;;;;;;;;;9.32;79.64;100035.75;5048338;28;20447;-72
2023/02/28 13:15:59;;;;;;;;;;;;;;;11.43;80.88;100015.56;5052696;28;20413;-72
2023/02/28 13:18:29;;;;;;;;;;;;;;;9.09;75.84;99998.28;5050505;28;20007;-72
2023/02/28 13:20:54;;;;;;;;;;;;;;;8.69;79.28;100028.59;5037830;28;19920;-72
2023/02/28 13:23:38;;;;;;;;;;;;;;;9.72;81.53;100040.47;5042085;28;20545;-72
2023/02/28 13:26:04;;;;;;;;;;;;;;;9.07;78.56;100020.56;5045584;28;19920;-72
2023/02/28 13:28:48;;;;;;;;;;;;;;;8.70;76.30;100015.75;5049185;28;19923;-72
2023/02/28 13:31:13;;;;;;;;;;;;;;;8.42;81.95;100055.34;5039234;28;20037;-72
2023/02/28 13:33:52;;;;;;;;;;;;;;;8.63;80.98;100036.38;5047273;28;19920;-72
2023/02/28 13:36:17;;;;;;;;;;;;;;;7.59;79.93;100035.19;5048386;28;19952;-72
2023/02/28 13:38:45;;;;;;;;;;;;;;;7.90;80.33;100036.75;5048162;28;19967;-72
2023/02/28 13:41:28;;;;;;;;;;;;;;;8.49;79.49;100015.94;5047502;28;19925;-72
2023/02/28 13:44:06;;;;;;;;;;;;;;;9.60;83.41;100034.59;5045924;28;20286;-72
2023/02/28 13:46:35;;;;;;;;;;;;;;;9.63;81.71;100016.56;5048782;28;19951;-72
2023/02/28 13:49:24;;;;;;;;;;;;;;;7.80;78.34;100006.91;5044496;28;19955;-72
2023/02/28 13:51:53;;;;;;;;;;;;;;;8.32;80.71;100019.41;5044775;28;19924;-72
2023/02/28 13:54:37;;;;;;;;;;;;;;;8.49;80.50;100016.78;5046905;28;19964;-72
2023/02/28 13:57:14;;;;;;;;;;;;;;;8.18;80.50;100010.97;5050281;28;19920;-72
2023/02/28 13:59:42;;;;;;;;;;;;;;;7.96;82.08;100021.34;5041682;28;19929;-72
2023/02/28 14:02:26;;;;;;;;;;;;;;;7.83;81.82;100019.72;5042410;28;20601;-72
2023/02/28 14:04:57;;;;;;;;;;;;;;;9.82;79.01;99991.44;5042453;28;20591;-72
2023/02/28 14:07:23;;;;;;;;;;;;;;;7.47;77.63;99995.91;5032713;28;20524;-72
2023/02/28 14:09:52;;;;;;;;;;;;;;;6.31;79.89;100029.28;5036111;28;19925;-72
2023/02/28 14:12:36;;;;;;;;;;;;;;;8.13;79.39;100002.44;5031483;28;19927;-72
2023/02/28 14:15:01;;;;;;;;;;;;;;;8.32;79.82;100014.28;5044524;28;20019;-72
2023/02/28 14:17:27;;;;;;;;;;;;;;;8.11;79.89;100011.88;5044298;28;21056;-72
2023/02/28 14:19:52;;;;;;;;;;;;;;;7.52;81.78;100024.09;5042344;28;19936;-72
2023/02/28 14:22:36;;;;;;;;;;;;;;;8.00;83.89;100042.69;5036831;28;19924;-72
2023/02/28 14:25:07;;;;;;;;;;;;;;;7.56;84.61;100042.88;5042199;28;20387;-72
2023/02/28 14:27:47;;;;;;;;;;;;;;;8.62;83.90;100022.69;5040972;28;20003;-73
2023/02/28 14:30:21;;;;;;;;;;;;;;;8.58;86.05;100049.25;5045027;28;20211;-72
2023/02/28 14:33:02;;;;;;;;;;;;;;;7.30;85.71;100054.91;5040963;28;19924;-72
2023/02/28 14:35:45;;;;;;;;;;;;;;;7.77;89.38;100072.72;5045154;28;20003;-73
2023/02/28 14:38:18;;;;;;;;;;;;;;;7.37;87.36;100060.88;5046257;28;19929;-73
2023/02/28 14:40:44;;;;;;;;;;;;;;;7.67;87.14;100049.69;5040669;28;19977;-72
2023/02/28 14:43:20;;;;;;;;;;;;;;;6.80;87.07;100054.94;5040652;28;19921;-73
2023/02/28 14:45:48;;;;;;;;;;;;;;;7.27;87.42;100048.91;5051650;28;19924;-72
2023/02/28 14:48:15;;;;;;;;;;;;;;;7.60;87.04;100044.59;5036865;28;19932;-73
2023/02/28 14:50:42;;;;;;;;;;;;;;;8.23;88.24;100052.84;5047713;28;19927;-73
2023/02/28 14:53:10;;;;;;;;;;;;;;;8.07;81.79;99992.22;5047831;28;19933;-73
2023/02/28 14:55:35;;;;;;;;;;;;;;;8.07;80.54;99987.09;5048323;28;20528;-72
2023/02/28 14:58:06;;;;;;;;;;;;;;;7.92;77.67;99973.50;5044980;28;19942;-73
2023/02/28 15:00:32;;;;;;;;;;;;;;;7.17;79.00;99985.75;5041586;28;19928;-73
2023/02/28 15:02:58;;;;;;;;;;;;;;;7.56;79.06;99992.47;5045420;28;20011;-73
2023/02/28 15:05:23;;;;;;;;;;;;;;;8.21;77.30;99964.78;5038794;28;20023;-73
2023/02/28 15:07:49;;;;;;;;;;;;;;;7.66;76.34;99963.38;5045453;28;20410;-73
2023/02/28 15:10:19;;;;;;;;;;;;;;;7.94;76.21;99960.66;5042385;28;19931;-73
2023/02/28 15:12:58;;;;;;;;;;;;;;;8.37;75.57;99958.66;5045350;28;19921;-72
2023/02/28 15:15:43;;;;;;;;;;;;;;;6.91;77.66;99986.63;5043641;28;19924;-72
2023/02/28 15:18:15;;;;;;;;;;;;;;;7.68;76.37;99958.22;5044994;28;19921;-72
2023/02/28 15:20:41;;;;;;;;;;;;;;;7.68;75.11;99963.34;5048871;28;19964;-72
2023/02/28 15:23:06;;;;;;;;;;;;;;;8.01;79.56;99997.41;5043067;28;19920;-72
2023/02/28 15:25:31;;;;;;;;;;;;;;;8.08;79.80;99992.22;5044559;28;19923;-73
2023/02/28 15:27:57;;;;;;;;;;;;;;;7.40;79.58;99998.50;5043518;28;20042;-73
2023/02/28 15:30:29;;;;;;;;;;;;;;;7.63;79.28;99996.72;5045573;28;19979;-72
2023/02/28 15:33:13;;;;;;;;;;;;;;;6.61;80.82;100016.50;5044778;28;19921;-72
2023/02/28 15:35:38;;;;;;;;;;;;;;;7.16;80.67;100014.78;5046944;28;20315;-72
2023/02/28 15:38:16;;;;;;;;;;;;;;;7.45;77.70;99982.25;5046752;28;19917;-72
2023/02/28 15:40:42;;;;;;;;;;;;;;;7.36;80.65;100007.91;5046344;28;19927;-73
2023/02/28 15:43:15;;;;;;;;;;;;;;;6.59;82.65;100036.16;5047358;28;19956;-72
2023/02/28 15:45:45;;;;;;;;;;;;;;;7.91;79.80;99997.44;5047673;28;19979;-73
2023/02/28 15:48:16;;;;;;;;;;;;;;;7.51;78.54;99995.03;5048153;28;19920;-73
2023/02/28 15:50:41;;;;;;;;;;;;;;;7.99;81.51;100009.38;5048691;28;19921;-72
2023/02/28 15:53:11;;;;;;;;;;;;;;;6.90;83.11;100036.16;5050907;28;19927;-72
2023/02/28 15:55:36;;;;;;;;;;;;;;;6.99;84.91;100054.06;5048816;28;19920;-73
2023/02/28 15:58:02;;;;;;;;;;;;;;;7.23;86.83;100067.72;5049582;28;19923;-73
2023/02/28 16:00:27;;;;;;;;;;;;;;;6.40;87.96;100072.81;5047833;28;20383;-72
2023/02/28 16:02:53;;;;;;;;;;;;;;;7.11;90.65;100089.91;5048632;28;19927;-72
2023/02/28 16:05:18;;;;;;;;;;;;;;;6.55;91.64;100088.19;5048872;28;19990;-73
2023/02/28 16:07:43;;;;;;;;;;;;;;;7.18;90.55;100075.41;5050177;28;19931;-73
2023/02/28 16:10:09;;;;;;;;;;;;;;;7.36;88.86;100068.56;5046784;28;20338;-73
2023/02/28 16:12:35;;;;;;;;;;;;;;;6.30;89.63;100071.94;5048367;28;19920;-72
2023/02/28 16:15:02;;;;;;;;;;;;;;;6.35;91.62;100089.84;5048673;28;19927;-73
2023/02/28 16:17:29;;;;;;;;;;;;;;;6.96;90.79;100081.41;5048384;28;19946;-72
2023/02/28 16:19:55;;;;;;;;;;;;;;;6.66;90.38;100085.63;5050244;28;20603;-73
2023/02/28 16:22:20;;;;;;;;;;;;;;;6.48;90.76;100092.44;5047713;28;20012;-73
2023/02/28 16:24:45;;;;;;;;;;;;;;;6.52;90.64;100083.06;5050765;28;19913;-73
2023/02/28 16:27:15;;;;;;;;;;;;;;;6.05;92.39;100112.75;5048228;28;19960;-73
2023/02/28 16:29:40;;;;;;;;;;;;;;;6.10;93.48;100124.72;5045733;28;19974;-73
2023/02/28 16:32:06;;;;;;;;;;;;;;;6.14;93.65;100119.63;5049560;28;19916;-72
2023/02/28 16:34:31;;;;;;;;;;;;;;;5.89;94.49;100120.34;5048339;28;19975;-73
2023/02/28 16:36:56;;;;;;;;;;;;;;;6.10;93.13;100112.78;5051061;28;19921;-73
2023/02/28 16:39:21;;;;;;;;;;;;;;;6.61;93.03;100098.41;5050650;28;19925;-72
2023/02/28 16:41:47;;;;;;;;;;;;;;;5.99;94.92;100128.06;5049016;28;19921;-73
2023/02/28 16:44:14;;;;;;;;;;;;;;;6.22;95.42;100125.59;5052552;28;19920;-73
2023/02/28 16:46:39;;;;;;;;;;;;;;;5.96;94.75;100122.09;5052940;28;19912;-72
2023/02/28 16:49:04;;;;;;;;;;;;;;;6.27;93.15;100107.72;5052321;28;19921;-73